Latest Coastal Weather Observations for Kiama

IDN60701

Issued at 10:11 am EDT Saturday 21 October 2017 (issued every 10 minutes, with the page automatically refreshed every 10 minutes)

About coastal observations | Map of coastal stations | Coastal observations for NSW | Marine services | Other Formats
Station Details ID: 068242 Name: KIAMA (BOMBO HEADLAND) Lat: -34.65 Lon: 150.86 Height: 15.5 m
Data from the previous 72 hours. | See also: Recent months at Kiama
Date/Time
EDT
Temp
°C
Wind Pressure Rain since
9am
mm
Weather Cloud Vis
km
Sea
Height
m
Swell
Dir  Spd
kts
Gust
kts
hPa Trend Height
m
Period
s
Dir
21/10:00am 15.3 SSW 16 21 - - 0.0 - - - - - - -
21/09:30am 14.9 SSW 16 21 - - 0.0 - - - - - - -
21/09:00am 14.6 SSW 14 21 - - 2.4 - - - - - - -
21/08:30am 14.4 SSW 15 19 - - 2.4 - - - - - - -
21/08:00am 13.9 SSW 14 20 - - 2.4 - - - - - - -
21/07:30am 13.5 SW 14 19 - - 2.4 - - - - - - -
21/07:00am 12.6 SW 10 14 - - 2.4 - - - - - - -
21/06:30am 12.3 SW 10 13 - - 2.4 - - - - - - -
21/06:00am 12.4 SW 9 12 - - 2.4 - - - - - - -
21/05:30am 12.5 SW 9 13 - - 2.4 - - - - - - -
21/05:00am 12.9 SW 10 13 - - 2.4 - - - - - - -
21/04:30am 13.4 SSW 12 16 - - 2.4 - - - - - - -
21/04:00am 13.1 SW 7 10 - - 2.4 - - - - - - -
21/03:30am 13.4 SW 8 12 - - 2.4 - - - - - - -
21/03:00am 13.9 SSW 10 14 - - 2.4 - - - - - - -
21/02:30am 14.6 SSW 20 27 - - 2.4 - - - - - - -
21/02:00am 14.7 SSW 18 23 - - 2.4 - - - - - - -
21/01:30am 14.8 S 22 28 - - 2.4 - - - - - - -
21/01:00am 15.3 S 20 29 - - 2.4 - - - - - - -
21/12:52am 15.2 S 18 29 - - 2.4 - - - - - - -
21/12:30am 15.3 S 19 26 - - 2.4 - - - - - - -
21/12:00am 15.4 S 21 30 - - 2.4 - - - - - - -
 
Date/Time
EDT
Temp
°C
Wind Pressure Rain since
9am
mm
Weather Cloud Vis
km
Sea
Height
m
Swell
Dir  Spd
kts
Gust
kts
hPa Trend Height
m
Period
s
Dir
20/11:30pm 15.7 S 21 27 - - 2.4 - - - - - - -
20/11:00pm 16.0 S 19 25 - - 2.4 - - - - - - -
20/10:30pm 16.0 S 21 27 - - 2.4 - - - - - - -
20/10:00pm 16.1 S 19 25 - - 2.4 - - - - - - -
20/09:30pm 16.1 S 20 28 - - 2.4 - - - - - - -
20/09:00pm 16.2 S 18 24 - - 2.4 - - - - - - -
20/08:50pm 16.2 S 19 29 - - 2.4 - - - - - - -
20/08:30pm 16.2 S 20 25 - - 2.4 - - - - - - -
20/08:00pm 16.1 S 19 25 - - 2.4 - - - - - - -
20/07:30pm 16.1 S 18 24 - - 2.4 - - - - - - -
20/07:00pm 16.0 S 19 25 - - 2.4 - - - - - - -
20/06:30pm 16.1 S 18 25 - - 2.4 - - - - - - -
20/06:00pm 15.8 S 17 23 - - 2.4 - - - - - - -
20/05:42pm 15.7 S 16 27 - - 2.4 - - - - - - -
20/05:30pm 14.9 SSW 15 22 - - 2.4 - - - - - - -
20/05:00pm 15.2 SSW 14 18 - - 2.4 - - - - - - -
20/04:30pm 14.9 SSW 18 22 - - 2.4 - - - - - - -
20/04:07pm 14.7 S 15 26 - - 2.4 - - - - - - -
20/04:00pm 14.3 S 12 17 - - 2.4 - - - - - - -
20/03:30pm 14.4 S 14 19 - - 2.0 - - - - - - -
20/03:00pm 14.1 S 16 24 - - 2.0 Rain - - - - - -
20/02:30pm 14.1 SSW 18 25 - - 1.8 - - - - - - -
20/02:00pm 14.2 S 17 22 - - 1.4 - - - - - - -
20/01:30pm 14.7 S 15 22 - - 0.8 - - - - - - -
20/01:00pm 14.7 S 21 25 - - 0.8 - - - - - - -
20/12:30pm 14.6 S 23 31 - - 0.4 - - - - - - -
20/12:20pm 14.9 S 22 33 - - 0.4 - - - - - - -
20/12:00pm 15.4 S 19 27 - - 0.4 Recent precip. - - - - - -
20/11:30am 16.0 SSW 16 22 - - 0.2 - - - - - - -
20/11:00am 16.3 SSW 19 26 - - 0.2 - - - - - - -
20/10:30am 16.1 SSW 15 21 - - 0.2 - - - - - - -
20/10:00am 15.3 SSW 20 27 - - 0.2 - - - - - - -
20/09:30am 15.2 SSW 19 25 - - 0.0 - - - - - - -
20/09:00am 14.9 SSW 23 32 - - 5.8 Recent precip. - - - - - -
20/08:30am 15.6 S 22 28 - - 5.6 - - - - - - -
20/08:00am 17.0 S 11 24 - - 5.0 - - - - - - -
20/07:59am 17.6 S 9 24 - - 5.0 - - - - - - -
20/07:30am 18.2 SSW 2 4 - - 4.6 - - - - - - -
20/07:00am 18.6 CALM 0 0 - - 4.2 - - - - - - -
20/06:30am 18.5 SW 2 3 - - 3.0 - - - - - - -
20/06:00am 18.5 CALM 0 1 - - 2.2 Rain - - - - - -
20/05:30am 18.5 CALM 0 1 - - 1.4 - - - - - - -
20/05:00am 18.4 NW 1 4 - - 1.2 - - - - - - -
20/04:30am 18.0 CALM 0 2 - - 1.0 - - - - - - -
20/04:00am 18.0 SE 6 7 - - 0.8 - - - - - - -
20/03:30am 18.3 SE 4 6 - - 0.4 - - - - - - -
20/03:00am 18.2 SSE 4 7 - - 0.4 Rain - - - - - -
20/02:30am 18.5 SE 6 7 - - 0.2 - - - - - - -
20/02:00am 19.5 SSE 7 9 - - 0.0 - - - - - - -
20/01:30am 18.2 SE 3 5 - - 0.0 - - - - - - -
20/01:00am 18.4 N 1 3 - - 0.0 - - - - - - -
20/12:30am 18.5 CALM 0 2 - - 0.0 - - - - - - -
20/12:00am 18.6 N 3 6 - - 0.0 - - - - - - -
 
Date/Time
EDT
Temp
°C
Wind Pressure Rain since
9am
mm
Weather Cloud Vis
km
Sea
Height
m
Swell
Dir  Spd
kts
Gust
kts
hPa Trend Height
m
Period
s
Dir
19/11:30pm 18.6 N 6 8 - - 0.0 - - - - - - -
19/11:00pm 18.8 NNE 6 8 - - 0.0 - - - - - - -
19/10:30pm 18.8 N 8 10 - - 0.0 - - - - - - -
19/10:00pm 18.7 N 9 11 - - 0.0 - - - - - - -
19/09:30pm 18.6 N 12 14 - - 0.0 - - - - - - -
19/09:00pm 18.8 N 8 11 - - 0.0 - - - - - - -
19/08:30pm 18.9 N 6 8 - - 0.0 - - - - - - -
19/08:00pm 18.9 N 10 15 - - 0.0 - - - - - - -
19/07:30pm 19.2 N 12 15 - - 0.0 - - - - - - -
19/07:00pm 19.5 N 11 16 - - 0.0 - - - - - - -
19/06:30pm 19.7 N 12 18 - - 0.0 - - - - - - -
19/06:00pm 20.1 NNE 13 20 - - 0.0 - - - - - - -
19/05:30pm 20.3 NNE 11 16 - - 0.0 - - - - - - -
19/05:00pm 20.4 N 11 17 - - 0.0 - - - - - - -
19/04:30pm 21.4 N 11 17 - - 0.0 - - - - - - -
19/04:00pm 21.1 N 13 17 - - 0.0 - - - - - - -
19/03:30pm 22.1 N 10 14 - - 0.0 - - - - - - -
19/03:00pm 21.7 N 13 17 - - 0.0 - - - - - - -
19/02:30pm 22.1 N 13 18 - - 0.0 - - - - - - -
19/02:00pm 22.2 N 12 17 - - 0.0 - - - - - - -
19/01:30pm 21.9 NNE 11 18 - - 0.0 - - - - - - -
19/01:00pm 21.8 NNE 12 19 - - 0.0 - - - - - - -
19/12:30pm 21.0 NNE 15 20 - - 0.0 - - - - - - -
19/12:00pm 20.7 NNE 15 20 - - 0.0 - - - - - - -
19/11:30am 20.8 NNE 15 21 - - 0.0 - - - - - - -
19/11:00am 20.6 NNE 14 18 - - 0.0 - - - - - - -
19/10:30am 20.4 NNE 14 17 - - 0.0 - - - - - - -
19/10:00am 20.1 NNE 14 18 - - 0.0 - - - - - - -
19/09:30am 20.1 NNE 12 17 - - 0.0 - - - - - - -
19/09:00am 20.1 NNE 10 14 - - 0.0 - - - - - - -
19/08:30am 19.5 NNE 11 15 - - 0.0 - - - - - - -
19/08:00am 19.0 N 8 12 - - 0.0 - - - - - - -
19/07:30am 18.2 NNW 6 8 - - 0.0 - - - - - - -
19/07:00am 17.3 NNW 5 8 - - 0.0 - - - - - - -
19/06:30am 16.2 NW 4 6 - - 0.0 - - - - - - -
19/06:00am 16.1 NNW 4 6 - - 0.0 - - - - - - -
19/05:30am 16.3 NNW 5 7 - - 0.0 - - - - - - -
19/05:00am 16.4 NNW 5 8 - - 0.0 - - - - - - -
19/04:30am 17.1 NNW 4 5 - - 0.0 - - - - - - -
19/04:00am 17.5 N 4 7 - - 0.0 - - - - - - -
19/03:30am 17.8 N 10 12 - - 0.0 - - - - - - -
19/03:00am 17.9 N 11 13 - - 0.0 - - - - - - -
19/02:30am 17.9 N 10 12 - - 0.0 - - - - - - -
19/02:00am 18.0 N 9 13 - - 0.0 - - - - - - -
19/01:30am 18.3 NNE 8 11 - - 0.0 - - - - - - -
19/01:00am 18.4 N 10 13 - - 0.0 - - - - - - -
19/12:30am 18.3 N 11 15 - - 0.0 - - - - - - -
19/12:00am 18.6 N 10 13 - - 0.0 - - - - - - -
 
Date/Time
EDT
Temp
°C
Wind Pressure Rain since
9am
mm
Weather Cloud Vis
km
Sea
Height
m
Swell
Dir  Spd
kts
Gust
kts
hPa Trend Height
m
Period
s
Dir
18/11:30pm 18.7 N 12 16 - - 0.0 - - - - - - -
18/11:00pm 18.8 N 8 13 - - 0.0 - - - - - - -
18/10:30pm 19.1 N 13 18 - - 0.0 - - - - - - -
18/10:00pm 19.1 N 16 21 - - 0.0 - - - - - - -
18/09:30pm 19.1 N 18 23 - - 0.0 - - - - - - -
18/09:00pm 18.9 N 16 23 - - 0.0 - - - - - - -
18/08:30pm 18.9 NNE 15 21 - - 0.0 - - - - - - -
18/08:00pm 19.0 NNE 15 20 - - 0.0 - - - - - - -
18/07:30pm 19.1 NNE 16 22 - - 0.0 - - - - - - -
18/07:00pm 19.1 NNE 18 24 - - 0.0 - - - - - - -
18/06:30pm 19.3 NNE 19 24 - - 0.0 - - - - - - -
18/06:00pm 19.5 NNE 21 27 - - 0.0 - - - - - - -
18/05:30pm 20.0 NNE 20 26 - - 0.0 - - - - - - -
18/05:00pm 20.2 NNE 19 26 - - 0.0 - - - - - - -
18/04:30pm 20.3 NNE 20 25 - - 0.0 - - - - - - -
18/04:00pm 20.7 NNE 18 25 - - 0.0 - - - - - - -
18/03:30pm 20.9 NNE 20 25 - - 0.0 - - - - - - -
18/03:00pm 21.1 NNE 19 25 - - 0.0 - - - - - - -
18/02:30pm 21.4 NNE 18 27 - - 0.0 - - - - - - -
18/02:00pm 21.2 NNE 18 25 - - 0.0 - - - - - - -
18/01:30pm 21.0 NNE 20 26 - - 0.0 - - - - - - -
18/01:00pm 20.5 NNE 20 25 - - 0.0 - - - - - - -
18/12:30pm 20.5 NNE 18 23 - - 0.0 - - - - - - -
18/12:00pm 21.1 NNE 18 24 - - 0.0 - - - - - - -
18/11:30am 20.7 NNE 19 25 - - 0.0 - - - - - - -
18/11:00am 21.3 NNE 19 23 - - 0.0 - - - - - - -
18/10:30am 20.8 NNE 17 22 - - 0.0 - - - - - - -

Other Formats:

Comma delimited format used in spreadsheet applications
http://www.bom.gov.au/fwo/IDN60701/IDN60701.95749.axf

JavaScript Object Notation format (JSON) in row-major order
http://www.bom.gov.au/fwo/IDN60701/IDN60701.95749.json